createdAt,value
2023-05-09T00:00:43.826Z,43.26
2023-05-09T00:01:43.885Z,43.28
2023-05-09T00:02:43.874Z,43.25
2023-05-09T00:03:43.837Z,43.26
2023-05-09T00:04:43.920Z,43.27
2023-05-09T00:05:43.838Z,43.29
2023-05-09T00:06:43.852Z,43.28
2023-05-09T00:07:43.852Z,43.24
2023-05-09T00:08:43.860Z,43.27
2023-05-09T00:09:43.868Z,43.24
2023-05-09T00:10:43.854Z,43.26
2023-05-09T00:11:43.933Z,43.26
2023-05-09T00:12:43.869Z,43.28
2023-05-09T00:13:43.806Z,43.27
2023-05-09T00:14:43.793Z,43.28
2023-05-09T00:15:43.778Z,43.28
2023-05-09T00:16:43.794Z,43.24
2023-05-09T00:17:43.812Z,43.25
2023-05-09T00:18:43.754Z,43.25
2023-05-09T00:19:43.713Z,43.24
2023-05-09T00:20:43.715Z,43.25
2023-05-09T00:21:43.700Z,43.27
2023-05-09T00:22:43.685Z,43.26
2023-05-09T00:23:43.681Z,43.24
2023-05-09T00:24:43.651Z,43.26
2023-05-09T00:25:43.650Z,43.27
2023-05-09T00:26:43.643Z,43.27
2023-05-09T00:27:43.701Z,43.28
2023-05-09T00:28:43.621Z,43.24
2023-05-09T00:29:43.606Z,43.24
2023-05-09T00:30:43.609Z,43.26
2023-05-09T00:31:43.587Z,43.25
2023-05-09T00:32:43.593Z,43.25
2023-05-09T00:33:43.524Z,43.24
2023-05-09T00:34:43.515Z,43.24
2023-05-09T00:35:43.507Z,43.24
2023-05-09T00:36:43.535Z,43.24
2023-05-09T00:37:43.497Z,43.23
2023-05-09T00:38:43.510Z,43.25
2023-05-09T00:39:43.467Z,43.26
2023-05-09T00:40:43.472Z,43.25
2023-05-09T00:41:43.426Z,43.23
2023-05-09T00:42:43.433Z,43.23
2023-05-09T00:43:43.491Z,43.24
2023-05-09T00:44:43.382Z,43.26
2023-05-09T00:45:43.400Z,43.22
2023-05-09T00:46:43.370Z,43.21
2023-05-09T00:47:43.349Z,43.24
2023-05-09T00:48:43.330Z,43.23
2023-05-09T00:49:43.301Z,43.23
2023-05-09T00:50:43.274Z,43.23
2023-05-09T00:51:43.248Z,43.22
2023-05-09T00:52:43.237Z,43.24
2023-05-09T00:53:43.242Z,43.23
2023-05-09T00:54:43.219Z,43.23
2023-05-09T00:55:43.198Z,43.24
2023-05-09T00:56:43.194Z,43.23
2023-05-09T00:57:43.181Z,43.23
2023-05-09T00:58:43.175Z,43.22
2023-05-09T00:59:43.264Z,43.22
2023-05-09T01:00:43.201Z,43.22
2023-05-09T01:01:43.215Z,43.21
2023-05-09T01:02:43.291Z,43.21
2023-05-09T01:03:43.354Z,43.22
2023-05-09T01:04:44.115Z,43.20
2023-05-09T01:05:43.129Z,43.18
2023-05-09T01:06:43.146Z,43.22
2023-05-09T01:07:43.100Z,43.21
2023-05-09T01:08:43.131Z,43.22
2023-05-09T01:09:43.104Z,43.21
2023-05-09T01:10:43.112Z,43.21
2023-05-09T01:11:43.076Z,43.22
2023-05-09T01:12:43.084Z,43.20
2023-05-09T01:13:43.032Z,43.19
2023-05-09T01:14:43.060Z,43.17
2023-05-09T01:15:43.106Z,43.20
2023-05-09T01:16:43.010Z,43.19
2023-05-09T01:17:43.004Z,43.19
2023-05-09T01:18:42.979Z,43.20
2023-05-09T01:19:42.944Z,43.20
2023-05-09T01:20:42.922Z,43.21
2023-05-09T01:21:42.901Z,43.20
2023-05-09T01:22:42.905Z,43.21
2023-05-09T01:23:42.880Z,43.21
2023-05-09T01:24:42.878Z,43.21
2023-05-09T01:25:42.852Z,43.22
2023-05-09T01:26:42.842Z,43.24
2023-05-09T01:27:42.825Z,43.21
2023-05-09T01:28:42.817Z,43.21
2023-05-09T01:29:42.814Z,43.18
2023-05-09T01:30:42.811Z,43.22
2023-05-09T01:31:42.899Z,43.18
2023-05-09T01:32:42.869Z,43.19
2023-05-09T01:33:42.762Z,43.21
2023-05-09T01:34:42.744Z,43.20
2023-05-09T01:35:42.739Z,43.19
2023-05-09T01:36:42.706Z,43.18
2023-05-09T01:37:42.723Z,43.19
2023-05-09T01:38:42.683Z,43.18
2023-05-09T01:39:42.697Z,43.18
2023-05-09T01:40:42.662Z,43.20
2023-05-09T01:41:42.672Z,43.15
2023-05-09T01:42:42.670Z,43.17
2023-05-09T01:43:42.722Z,43.18
2023-05-09T01:44:42.634Z,43.18
2023-05-09T01:45:42.616Z,43.18
2023-05-09T01:46:42.628Z,43.18
2023-05-09T01:47:42.710Z,43.18
2023-05-09T01:48:42.568Z,43.18
2023-05-09T01:49:42.557Z,43.17
2023-05-09T01:50:42.563Z,43.17
2023-05-09T01:51:43.956Z,43.15
2023-05-09T01:52:42.559Z,43.17
2023-05-09T01:53:42.537Z,43.17
2023-05-09T01:54:42.542Z,43.19
2023-05-09T01:55:42.531Z,43.17
2023-05-09T01:56:42.539Z,43.19
2023-05-09T01:57:42.522Z,43.16
2023-05-09T01:58:42.525Z,43.17
2023-05-09T01:59:42.495Z,43.20
2023-05-09T02:00:42.543Z,43.14
2023-05-09T02:01:42.489Z,43.15
2023-05-09T02:02:42.622Z,43.15
2023-05-09T02:03:42.575Z,43.14
2023-05-09T02:04:42.500Z,43.17
2023-05-09T02:05:42.476Z,43.16
2023-05-09T02:06:42.469Z,43.16
2023-05-09T02:07:42.446Z,43.15
2023-05-09T02:08:42.455Z,43.12
2023-05-09T02:09:42.426Z,43.14
2023-05-09T02:10:42.426Z,43.14
2023-05-09T02:11:42.420Z,43.14
2023-05-09T02:12:42.470Z,43.16
2023-05-09T02:13:42.396Z,43.12
2023-05-09T02:14:42.378Z,43.17
2023-05-09T02:15:42.373Z,43.16
2023-05-09T02:16:42.371Z,43.16
2023-05-09T02:17:42.462Z,43.14
2023-05-09T02:18:42.391Z,43.15
2023-05-09T02:19:42.535Z,43.17
2023-05-09T02:20:42.397Z,43.15
2023-05-09T02:21:42.424Z,43.13
2023-05-09T02:22:42.407Z,43.13
2023-05-09T02:23:42.418Z,43.15
2023-05-09T02:24:42.434Z,43.15
2023-05-09T02:25:42.449Z,43.13
2023-05-09T02:26:42.482Z,43.12
2023-05-09T02:27:42.509Z,43.13
2023-05-09T02:28:42.532Z,43.17
2023-05-09T02:29:42.560Z,43.16
2023-05-09T02:30:42.569Z,43.14
2023-05-09T02:31:42.605Z,43.11
2023-05-09T02:32:42.662Z,43.12
2023-05-09T02:33:42.647Z,43.13
2023-05-09T02:34:42.704Z,43.14
2023-05-09T02:35:42.772Z,43.12
2023-05-09T02:36:42.746Z,43.14
2023-05-09T02:37:42.751Z,43.15
2023-05-09T02:38:42.811Z,43.14
2023-05-09T02:39:42.763Z,43.13
2023-05-09T02:40:42.826Z,43.14
2023-05-09T02:41:42.828Z,43.14
2023-05-09T02:42:42.833Z,43.13
2023-05-09T02:43:42.841Z,43.13
2023-05-09T02:44:42.834Z,43.14
2023-05-09T02:45:42.911Z,43.12
2023-05-09T02:46:42.842Z,43.12
2023-05-09T02:47:42.872Z,43.10
2023-05-09T02:48:42.846Z,43.13
2023-05-09T02:49:42.858Z,43.12
2023-05-09T02:50:42.924Z,43.12
2023-05-09T02:51:42.972Z,43.11
2023-05-09T02:52:42.882Z,43.09
2023-05-09T02:53:42.912Z,43.11
2023-05-09T02:54:42.899Z,43.15
2023-05-09T02:55:42.926Z,43.11
2023-05-09T02:56:42.914Z,43.13
2023-05-09T02:57:42.941Z,43.12
2023-05-09T02:58:42.947Z,43.13
2023-05-09T02:59:42.937Z,43.12
2023-05-09T03:00:42.957Z,43.09
2023-05-09T03:01:42.969Z,43.11
2023-05-09T03:02:42.996Z,43.10
2023-05-09T03:03:43.038Z,43.12
2023-05-09T03:04:42.960Z,43.11
2023-05-09T03:05:42.987Z,43.15
2023-05-09T03:06:43.010Z,43.13
2023-05-09T03:07:43.067Z,43.10
2023-05-09T03:08:43.011Z,43.10
2023-05-09T03:09:42.991Z,43.12
2023-05-09T03:10:43.038Z,43.12
2023-05-09T03:11:43.019Z,43.12
2023-05-09T03:12:43.070Z,43.11
2023-05-09T03:13:43.046Z,43.11
2023-05-09T03:14:43.076Z,43.13
2023-05-09T03:15:43.089Z,43.13
2023-05-09T03:16:43.097Z,43.12
2023-05-09T03:17:43.150Z,43.11
2023-05-09T03:18:43.130Z,43.13
2023-05-09T03:19:43.123Z,43.11
2023-05-09T03:20:43.134Z,43.09
2023-05-09T03:21:43.134Z,43.12
2023-05-09T03:22:43.154Z,43.10
2023-05-09T03:23:43.246Z,43.13
2023-05-09T03:24:43.146Z,43.12
2023-05-09T03:25:43.155Z,43.11
2023-05-09T03:26:43.133Z,43.11
2023-05-09T03:27:43.176Z,43.14
2023-05-09T03:28:43.150Z,43.09
2023-05-09T03:29:43.175Z,43.09
2023-05-09T03:30:43.171Z,43.10
2023-05-09T03:31:43.290Z,43.11
2023-05-09T03:32:43.270Z,43.12
2023-05-09T03:33:43.206Z,43.10
2023-05-09T03:34:43.196Z,43.08
2023-05-09T03:35:43.201Z,43.11
2023-05-09T03:36:43.208Z,43.11
2023-05-09T03:37:43.207Z,43.09
2023-05-09T03:38:43.219Z,43.10
2023-05-09T03:39:43.299Z,43.07
2023-05-09T03:40:43.221Z,43.08
2023-05-09T03:41:43.209Z,43.10
2023-05-09T03:42:43.219Z,43.07
2023-05-09T03:43:43.210Z,43.08
2023-05-09T03:44:43.216Z,43.10
2023-05-09T03:45:43.211Z,43.10
2023-05-09T03:46:43.266Z,43.08
2023-05-09T03:47:43.206Z,43.10
2023-05-09T03:48:43.233Z,43.10
2023-05-09T03:49:43.202Z,43.08
2023-05-09T03:50:43.241Z,43.08
2023-05-09T03:51:43.207Z,43.10
2023-05-09T03:52:43.262Z,43.08
2023-05-09T03:53:43.259Z,43.07
2023-05-09T03:54:43.287Z,43.07
2023-05-09T03:55:43.366Z,43.11
2023-05-09T03:56:43.291Z,43.09
2023-05-09T03:57:43.282Z,43.08
2023-05-09T03:58:43.283Z,43.07
2023-05-09T03:59:43.322Z,43.08
2023-05-09T04:00:43.290Z,43.08
2023-05-09T04:01:43.305Z,43.09
2023-05-09T04:02:43.320Z,43.06
2023-05-09T04:03:43.453Z,43.07
2023-05-09T04:04:43.295Z,43.07
2023-05-09T04:05:43.305Z,43.08
2023-05-09T04:06:43.302Z,43.07
2023-05-09T04:07:43.318Z,43.07
2023-05-09T04:08:43.308Z,43.07
2023-05-09T04:09:43.319Z,43.07
2023-05-09T04:10:43.281Z,43.05
2023-05-09T04:11:43.398Z,43.06
2023-05-09T04:12:43.302Z,43.07
2023-05-09T04:13:43.329Z,43.06
2023-05-09T04:14:43.304Z,43.05
2023-05-09T04:15:43.295Z,43.09
2023-05-09T04:16:43.277Z,43.07
2023-05-09T04:17:43.353Z,43.06
2023-05-09T04:18:43.255Z,43.07
2023-05-09T04:19:43.269Z,43.07
2023-05-09T04:20:43.241Z,43.03
2023-05-09T04:21:43.236Z,43.06
2023-05-09T04:22:45.398Z,43.06
2023-05-09T04:23:43.189Z,43.05
2023-05-09T04:24:43.154Z,43.07
2023-05-09T04:25:43.101Z,43.05
2023-05-09T04:26:43.068Z,43.03
2023-05-09T04:27:43.109Z,43.04
2023-05-09T04:28:42.976Z,43.06
2023-05-09T04:29:42.936Z,43.07
2023-05-09T04:30:42.909Z,43.07
2023-05-09T04:31:42.998Z,43.04
2023-05-09T04:32:42.841Z,43.03
2023-05-09T04:33:42.773Z,43.04
2023-05-09T04:34:42.726Z,43.04
2023-05-09T04:35:42.668Z,43.03
2023-05-09T04:36:42.623Z,43.06
2023-05-09T04:37:42.575Z,43.03
2023-05-09T04:38:42.540Z,43.06
2023-05-09T04:39:42.484Z,43.02
2023-05-09T04:40:42.438Z,43.03
2023-05-09T04:41:43.393Z,43.04
2023-05-09T04:42:42.348Z,43.04
2023-05-09T04:43:42.413Z,43.01
2023-05-09T04:44:42.274Z,43.03
2023-05-09T04:45:42.224Z,43.03
2023-05-09T04:46:42.247Z,43.02
2023-05-09T04:47:42.189Z,43.03
2023-05-09T04:48:42.091Z,43.02
2023-05-09T04:49:42.090Z,43.02
2023-05-09T04:50:41.991Z,43.01
2023-05-09T04:51:41.955Z,43.02
2023-05-09T04:52:41.906Z,43.01
2023-05-09T04:53:41.867Z,43.02
2023-05-09T04:54:41.850Z,43.00
2023-05-09T04:55:41.820Z,42.99
2023-05-09T04:56:41.802Z,42.99
2023-05-09T04:57:41.799Z,42.97
2023-05-09T04:58:41.758Z,42.98
2023-05-09T04:59:41.826Z,42.96
2023-05-09T05:00:41.719Z,42.97
2023-05-09T05:01:41.750Z,43.00
2023-05-09T05:02:41.731Z,42.96
2023-05-09T05:03:41.701Z,42.97
2023-05-09T05:04:41.756Z,42.99
2023-05-09T05:05:41.817Z,42.98
2023-05-09T05:06:41.723Z,42.97
2023-05-09T05:07:41.698Z,42.95
2023-05-09T05:08:41.719Z,42.98
2023-05-09T05:09:41.699Z,42.94
2023-05-09T05:10:41.688Z,42.94
2023-05-09T05:11:47.494Z,42.95
2023-05-09T05:12:42.688Z,42.92
2023-05-09T05:13:41.606Z,42.94
2023-05-09T05:14:41.584Z,42.97
2023-05-09T05:15:41.616Z,42.93
2023-05-09T05:16:41.521Z,42.93
2023-05-09T05:17:41.514Z,43.01
2023-05-09T05:18:41.417Z,43.35
2023-05-09T05:19:41.365Z,43.02
2023-05-09T05:20:41.325Z,42.96
2023-05-09T05:21:41.285Z,43.05
2023-05-09T05:22:41.243Z,42.91
2023-05-09T05:23:41.185Z,42.89
2023-05-09T05:24:41.175Z,42.91
2023-05-09T05:25:41.143Z,43.48
2023-05-09T05:26:41.156Z,43.35
2023-05-09T05:27:41.153Z,43.24
2023-05-09T05:28:41.170Z,43.04
2023-05-09T05:29:41.169Z,42.98
2023-05-09T05:30:41.212Z,43.04
2023-05-09T05:31:41.331Z,43.19
2023-05-09T05:32:41.206Z,43.24
2023-05-09T05:33:41.219Z,43.34
2023-05-09T05:34:41.222Z,43.42
2023-05-09T05:35:41.261Z,43.34
2023-05-09T05:36:41.249Z,43.30
2023-05-09T05:37:41.275Z,43.29
2023-05-09T05:38:41.264Z,43.27
2023-05-09T05:39:41.287Z,43.26
2023-05-09T05:40:41.287Z,43.31
2023-05-09T05:41:41.305Z,43.27
2023-05-09T05:42:41.324Z,43.30
2023-05-09T05:43:41.324Z,43.30
2023-05-09T05:44:41.328Z,43.32
2023-05-09T05:45:41.374Z,43.33
2023-05-09T05:46:41.331Z,43.35
2023-05-09T05:47:41.430Z,43.35
2023-05-09T05:48:41.332Z,43.36
2023-05-09T05:49:42.230Z,43.36
2023-05-09T05:50:41.306Z,43.37
2023-05-09T05:51:41.315Z,43.36
2023-05-09T05:52:41.319Z,43.38
2023-05-09T05:53:41.305Z,43.39
2023-05-09T05:54:41.319Z,43.37
2023-05-09T05:55:41.306Z,43.38
2023-05-09T05:56:41.310Z,43.37
2023-05-09T05:57:41.311Z,43.37
2023-05-09T05:58:41.305Z,43.38
2023-05-09T05:59:41.305Z,43.37
2023-05-09T06:00:41.291Z,43.36
2023-05-09T06:01:41.457Z,43.37
2023-05-09T06:02:41.427Z,43.39
2023-05-09T06:03:41.512Z,43.34
2023-05-09T06:04:41.269Z,43.36
2023-05-09T06:05:41.261Z,43.37
2023-05-09T06:06:41.246Z,43.37
2023-05-09T06:07:41.223Z,43.36
2023-05-09T06:08:41.218Z,43.37
2023-05-09T06:09:41.227Z,43.33
2023-05-09T06:10:41.209Z,43.37
2023-05-09T06:11:41.224Z,43.36
2023-05-09T06:12:41.230Z,43.36
2023-05-09T06:13:41.210Z,43.34
2023-05-09T06:14:41.160Z,43.35
2023-05-09T06:15:41.189Z,43.32
2023-05-09T06:16:41.160Z,43.29
2023-05-09T06:17:41.135Z,43.30
2023-05-09T06:18:41.097Z,43.29
2023-05-09T06:19:41.164Z,43.29
2023-05-09T06:20:41.064Z,43.28
2023-05-09T06:21:41.126Z,43.26
2023-05-09T06:22:41.052Z,43.28
2023-05-09T06:23:51.003Z,43.28
2023-05-09T06:24:42.001Z,43.28
2023-05-09T06:25:40.956Z,43.27
2023-05-09T06:26:40.902Z,43.23
2023-05-09T06:27:40.883Z,43.25
2023-05-09T06:28:40.817Z,43.21
2023-05-09T06:29:40.775Z,43.18
2023-05-09T06:30:40.739Z,43.18
2023-05-09T06:31:40.740Z,43.18
2023-05-09T06:32:40.655Z,43.12
2023-05-09T06:33:40.607Z,43.12
2023-05-09T06:34:40.604Z,43.08
2023-05-09T06:35:40.740Z,43.04
2023-05-09T06:36:40.594Z,43.01
2023-05-09T06:37:40.606Z,43.02
2023-05-09T06:38:40.622Z,43.02
2023-05-09T06:39:40.609Z,42.99
2023-05-09T06:40:40.750Z,42.98
2023-05-09T06:41:40.644Z,42.99
2023-05-09T06:42:40.687Z,42.99
2023-05-09T06:43:40.695Z,42.97
2023-05-09T06:44:40.719Z,42.99
2023-05-09T06:45:40.742Z,42.99
2023-05-09T06:46:40.799Z,43.00
2023-05-09T06:47:40.804Z,43.02
2023-05-09T06:48:40.781Z,42.97
2023-05-09T06:49:40.790Z,42.96
2023-05-09T06:50:40.807Z,42.99
2023-05-09T06:51:40.907Z,42.98
2023-05-09T06:52:40.828Z,42.95
2023-05-09T06:53:40.853Z,42.95
2023-05-09T06:54:40.940Z,42.96
2023-05-09T06:55:40.880Z,42.91
2023-05-09T06:56:40.901Z,42.90
2023-05-09T06:57:40.953Z,42.92
2023-05-09T06:58:40.926Z,42.91
2023-05-09T06:59:40.980Z,42.91
2023-05-09T07:00:40.940Z,42.91
2023-05-09T07:01:41.111Z,42.90
2023-05-09T07:02:41.035Z,42.86
2023-05-09T07:03:40.992Z,42.90
2023-05-09T07:04:41.050Z,42.89
2023-05-09T07:05:41.016Z,42.90
2023-05-09T07:06:41.039Z,42.89
2023-05-09T07:07:41.142Z,42.88
2023-05-09T07:08:41.046Z,42.89
2023-05-09T07:09:41.055Z,42.88
2023-05-09T07:10:41.066Z,42.88
2023-05-09T07:11:41.082Z,42.88
2023-05-09T07:12:41.130Z,42.88
2023-05-09T07:13:41.126Z,42.87
2023-05-09T07:14:41.169Z,42.87
2023-05-09T07:15:42.968Z,42.88
2023-05-09T07:16:41.318Z,42.87
2023-05-09T07:17:41.229Z,42.93
2023-05-09T07:18:41.235Z,45.07
2023-05-09T07:19:41.240Z,44.87
2023-05-09T07:20:41.245Z,44.35
2023-05-09T07:21:41.241Z,45.60
2023-05-09T07:22:41.328Z,45.61
2023-05-09T07:23:41.362Z,45.97
2023-05-09T07:24:41.274Z,45.63
2023-05-09T07:25:41.268Z,45.72
2023-05-09T07:26:41.267Z,45.57
2023-05-09T07:27:41.318Z,45.74
2023-05-09T07:28:41.295Z,45.64
2023-05-09T07:29:41.328Z,45.98
2023-05-09T07:30:41.314Z,46.39
2023-05-09T07:31:41.361Z,46.50
2023-05-09T07:32:41.356Z,46.61
2023-05-09T07:33:41.358Z,46.41
2023-05-09T07:34:41.335Z,47.01
2023-05-09T07:35:41.318Z,46.58
2023-05-09T07:36:41.293Z,46.19
2023-05-09T07:37:42.283Z,45.95
2023-05-09T07:38:41.366Z,45.90
2023-05-09T07:39:41.458Z,45.79
2023-05-09T07:40:41.367Z,45.76
2023-05-09T07:41:41.393Z,45.59
2023-05-09T07:42:41.378Z,45.72
2023-05-09T07:43:41.385Z,45.74
2023-05-09T07:44:42.286Z,46.02
2023-05-09T07:45:41.452Z,46.41
2023-05-09T07:46:41.353Z,45.98
2023-05-09T07:47:41.368Z,46.35
2023-05-09T07:48:41.344Z,45.74
2023-05-09T07:49:41.321Z,45.96
2023-05-09T07:50:41.319Z,45.80
2023-05-09T07:51:41.304Z,45.84
2023-05-09T07:52:41.280Z,45.74
2023-05-09T07:53:41.221Z,45.76
2023-05-09T07:54:41.229Z,45.90
2023-05-09T07:55:41.260Z,45.92
2023-05-09T07:56:41.170Z,46.08
2023-05-09T07:57:41.813Z,45.96
2023-05-09T07:58:41.087Z,46.17
2023-05-09T07:59:41.117Z,46.25
2023-05-09T08:00:41.026Z,46.21
2023-05-09T08:01:40.979Z,46.16
2023-05-09T08:02:41.086Z,46.06
2023-05-09T08:03:40.941Z,45.96
2023-05-09T08:04:41.671Z,46.13
2023-05-09T08:05:40.846Z,46.19
2023-05-09T08:06:40.796Z,46.12
2023-05-09T08:07:40.764Z,46.13
2023-05-09T08:08:40.732Z,46.05
2023-05-09T08:09:40.708Z,46.41
2023-05-09T08:10:40.674Z,46.08
2023-05-09T08:11:41.382Z,45.97
2023-05-09T08:12:40.644Z,45.87
2023-05-09T08:13:40.576Z,45.95
2023-05-09T08:14:40.520Z,45.43
2023-05-09T08:15:40.590Z,45.44
2023-05-09T08:16:40.530Z,44.56
2023-05-09T08:17:40.539Z,44.91
2023-05-09T08:18:40.410Z,44.25
2023-05-09T08:19:40.395Z,43.90
2023-05-09T08:20:40.366Z,43.75
2023-05-09T08:21:40.472Z,44.22
2023-05-09T08:22:40.343Z,44.00
2023-05-09T08:23:40.470Z,43.60
2023-05-09T08:24:40.534Z,43.18
2023-05-09T08:25:40.261Z,43.15
2023-05-09T08:26:40.276Z,44.41
2023-05-09T08:27:40.325Z,44.67
2023-05-09T08:28:40.278Z,44.49
2023-05-09T08:29:40.215Z,44.67
2023-05-09T08:30:40.224Z,44.32
2023-05-09T08:31:40.189Z,44.32
2023-05-09T08:32:40.227Z,44.25
2023-05-09T08:33:41.970Z,44.20
2023-05-09T08:34:40.133Z,44.32
2023-05-09T08:35:40.084Z,44.13
2023-05-09T08:36:40.054Z,44.33
2023-05-09T08:37:40.006Z,44.31
2023-05-09T08:38:39.989Z,44.31
2023-05-09T08:39:39.953Z,44.50
2023-05-09T08:40:39.927Z,44.18
2023-05-09T08:41:39.878Z,44.50
2023-05-09T08:42:39.853Z,44.69
2023-05-09T08:43:39.892Z,44.84
2023-05-09T08:44:39.781Z,44.53
2023-05-09T08:45:39.755Z,44.50
2023-05-09T08:46:39.836Z,44.32
2023-05-09T08:47:39.760Z,44.20
2023-05-09T08:48:39.682Z,44.24
2023-05-09T08:49:39.653Z,44.00
2023-05-09T08:50:39.597Z,43.79
2023-05-09T08:51:39.572Z,44.19
2023-05-09T08:52:39.531Z,43.56
2023-05-09T08:53:39.523Z,43.62
2023-05-09T08:54:39.481Z,43.68
2023-05-09T08:55:39.473Z,43.75
2023-05-09T08:56:39.454Z,43.58
2023-05-09T08:57:39.421Z,43.67
2023-05-09T08:58:39.834Z,43.79
2023-05-09T08:59:39.466Z,44.24
2023-05-09T09:00:39.361Z,44.12
2023-05-09T09:01:39.330Z,43.95
2023-05-09T09:02:39.393Z,44.18
2023-05-09T09:03:39.302Z,43.67
2023-05-09T09:04:39.396Z,44.17
2023-05-09T09:05:41.322Z,44.10
2023-05-09T09:06:39.214Z,44.28
2023-05-09T09:07:39.149Z,44.26
2023-05-09T09:08:39.087Z,45.14
2023-05-09T09:09:39.057Z,45.15
2023-05-09T09:10:38.962Z,45.54
2023-05-09T09:11:39.077Z,44.72
2023-05-09T09:12:38.844Z,45.58
2023-05-09T09:13:38.776Z,44.83
2023-05-09T09:14:38.909Z,45.87
2023-05-09T09:15:38.720Z,45.35
2023-05-09T09:16:38.620Z,44.36
2023-05-09T09:17:39.408Z,43.02
2023-05-09T09:18:39.745Z,43.33
2023-05-09T09:19:38.499Z,43.49
2023-05-09T09:20:38.280Z,43.87
2023-05-09T09:21:38.233Z,43.42
2023-05-09T09:22:38.168Z,43.62
2023-05-09T09:23:38.109Z,43.40
2023-05-09T09:24:38.026Z,44.19
2023-05-09T09:25:37.971Z,43.13
2023-05-09T09:26:37.875Z,43.19
2023-05-09T09:27:38.356Z,43.52
2023-05-09T09:28:37.757Z,43.66
2023-05-09T09:29:37.708Z,44.13
2023-05-09T09:30:37.632Z,44.68
2023-05-09T09:31:37.740Z,44.13
2023-05-09T09:32:37.591Z,43.95
2023-05-09T09:33:37.441Z,43.96
2023-05-09T09:34:37.384Z,44.05
2023-05-09T09:35:37.313Z,44.00
2023-05-09T09:36:37.288Z,44.23
2023-05-09T09:37:37.277Z,43.91
2023-05-09T09:38:37.239Z,44.13
2023-05-09T09:39:37.238Z,44.10
2023-05-09T09:40:37.211Z,45.21
2023-05-09T09:41:37.179Z,44.51
2023-05-09T09:42:37.186Z,44.29
2023-05-09T09:43:37.138Z,44.39
2023-05-09T09:44:37.150Z,44.47
2023-05-09T09:45:37.144Z,44.34
2023-05-09T09:46:37.330Z,44.30
2023-05-09T09:47:37.174Z,44.24
2023-05-09T09:48:37.033Z,44.05
2023-05-09T09:49:37.052Z,43.93
2023-05-09T09:50:37.086Z,43.58
2023-05-09T09:51:37.021Z,43.37
2023-05-09T09:52:36.977Z,43.37
2023-05-09T09:53:36.975Z,43.35
2023-05-09T09:54:36.961Z,43.41
2023-05-09T09:55:36.924Z,43.14
2023-05-09T09:56:36.916Z,43.11
2023-05-09T09:57:36.891Z,43.49
2023-05-09T09:58:36.871Z,42.98
2023-05-09T09:59:36.850Z,43.12
2023-05-09T10:00:36.839Z,42.96
2023-05-09T10:01:36.872Z,43.16
2023-05-09T10:02:36.847Z,43.01
2023-05-09T10:03:36.883Z,42.85
2023-05-09T10:04:36.891Z,42.74
2023-05-09T10:05:36.729Z,42.66
2023-05-09T10:06:36.725Z,42.61
2023-05-09T10:07:36.708Z,42.14
2023-05-09T10:08:36.688Z,42.51
2023-05-09T10:09:36.672Z,42.15
2023-05-09T10:10:36.660Z,42.32
2023-05-09T10:11:36.640Z,42.36
2023-05-09T10:12:36.598Z,42.38
2023-05-09T10:13:36.602Z,42.40
2023-05-09T10:14:36.593Z,42.40
2023-05-09T10:15:49.317Z,42.38
2023-05-09T10:16:43.775Z,42.34
2023-05-09T10:17:37.650Z,42.30
2023-05-09T10:18:37.497Z,42.39
2023-05-09T10:19:36.434Z,42.46
2023-05-09T10:20:36.258Z,42.38
2023-05-09T10:21:36.787Z,42.44
2023-05-09T10:22:36.153Z,42.43
2023-05-09T10:23:36.088Z,42.42
2023-05-09T10:24:36.016Z,42.39
2023-05-09T10:25:35.963Z,42.39
2023-05-09T10:26:35.893Z,42.34
2023-05-09T10:27:35.854Z,42.28
2023-05-09T10:28:35.801Z,42.26
2023-05-09T10:29:35.721Z,42.31
2023-05-09T10:30:35.657Z,42.31
2023-05-09T10:31:35.621Z,42.33
2023-05-09T10:32:35.559Z,42.31
2023-05-09T10:33:35.481Z,42.29
2023-05-09T10:34:35.425Z,42.30
2023-05-09T10:35:35.385Z,42.37
2023-05-09T10:36:35.325Z,42.33
2023-05-09T10:37:35.283Z,42.34
2023-05-09T10:38:35.258Z,42.37
2023-05-09T10:39:35.228Z,42.39
2023-05-09T10:40:35.187Z,42.43
2023-05-09T10:41:35.157Z,42.48
2023-05-09T10:42:35.128Z,42.42
2023-05-09T10:43:36.695Z,42.47
2023-05-09T10:44:35.082Z,42.47
2023-05-09T10:45:35.037Z,42.48
2023-05-09T10:46:35.090Z,42.50
2023-05-09T10:47:35.008Z,42.48
2023-05-09T10:48:34.941Z,42.52
2023-05-09T10:49:36.354Z,42.52
2023-05-09T10:50:34.852Z,42.52
2023-05-09T10:51:34.893Z,42.53
2023-05-09T10:52:34.772Z,42.53
2023-05-09T10:53:34.736Z,42.53
2023-05-09T10:54:34.698Z,42.56
2023-05-09T10:55:34.720Z,42.52
2023-05-09T10:56:34.647Z,42.48
2023-05-09T10:57:34.582Z,42.52
2023-05-09T10:58:34.558Z,42.49
2023-05-09T10:59:34.525Z,42.49
2023-05-09T11:00:34.491Z,42.50
2023-05-09T11:01:34.478Z,42.50
2023-05-09T11:02:34.429Z,42.44
2023-05-09T11:03:34.445Z,42.48
2023-05-09T11:04:34.362Z,42.51
2023-05-09T11:05:34.292Z,42.51
2023-05-09T11:06:34.275Z,42.51
2023-05-09T11:07:34.308Z,42.55
2023-05-09T11:08:34.206Z,42.54
2023-05-09T11:09:34.158Z,42.56
2023-05-09T11:10:34.119Z,42.56
2023-05-09T11:11:34.057Z,42.55
2023-05-09T11:12:34.021Z,42.55
2023-05-09T11:13:34.032Z,42.56
2023-05-09T11:14:33.962Z,42.53
2023-05-09T11:15:33.911Z,42.55
2023-05-09T11:16:33.992Z,42.54
2023-05-09T11:17:33.878Z,42.56
2023-05-09T11:18:33.842Z,42.58
2023-05-09T11:19:33.803Z,42.55
2023-05-09T11:20:33.770Z,42.58
2023-05-09T11:21:33.745Z,42.57
2023-05-09T11:22:33.707Z,42.56
2023-05-09T11:23:33.788Z,42.60
2023-05-09T11:24:33.659Z,42.59
2023-05-09T11:25:33.619Z,42.57
2023-05-09T11:26:33.628Z,42.58
2023-05-09T11:27:33.565Z,42.54
2023-05-09T11:28:33.537Z,42.54
2023-05-09T11:29:33.546Z,42.54
2023-05-09T11:30:33.434Z,42.57
2023-05-09T11:31:33.499Z,42.59
2023-05-09T11:32:33.365Z,42.57
2023-05-09T11:33:33.371Z,42.61
2023-05-09T11:34:33.896Z,42.56
2023-05-09T11:35:33.279Z,42.58
2023-05-09T11:36:33.243Z,42.59
2023-05-09T11:37:33.207Z,42.59
2023-05-09T11:38:33.149Z,42.58
2023-05-09T11:39:33.238Z,42.59
2023-05-09T11:40:33.094Z,42.57
2023-05-09T11:41:33.062Z,42.60
2023-05-09T11:42:33.014Z,42.59
2023-05-09T11:43:33.824Z,42.60
2023-05-09T11:44:32.941Z,42.61
2023-05-09T11:45:33.208Z,42.61
2023-05-09T11:46:33.427Z,42.62
2023-05-09T11:47:32.927Z,42.62
2023-05-09T11:48:32.825Z,42.61
2023-05-09T11:49:32.862Z,42.62
2023-05-09T11:50:32.771Z,42.61
2023-05-09T11:51:32.760Z,42.62
2023-05-09T11:52:32.711Z,42.60
2023-05-09T11:53:32.706Z,42.61
2023-05-09T11:54:32.667Z,42.62
2023-05-09T11:55:32.793Z,42.61
2023-05-09T11:56:32.637Z,42.63
2023-05-09T11:57:32.649Z,42.61
2023-05-09T11:58:32.575Z,42.61
2023-05-09T11:59:32.568Z,42.61
2023-05-09T12:00:32.521Z,42.59
2023-05-09T12:01:32.512Z,42.62
2023-05-09T12:02:32.519Z,42.57
2023-05-09T12:03:32.546Z,42.61
2023-05-09T12:04:32.490Z,42.63
2023-05-09T12:05:32.422Z,42.62
2023-05-09T12:06:32.368Z,42.65
2023-05-09T12:07:33.826Z,42.64
2023-05-09T12:08:32.368Z,42.61
2023-05-09T12:09:32.314Z,42.58
2023-05-09T12:10:32.285Z,42.55
2023-05-09T12:11:32.514Z,42.60
2023-05-09T12:12:32.196Z,42.63
2023-05-09T12:13:33.846Z,42.62
2023-05-09T12:14:32.118Z,42.60
2023-05-09T12:15:32.060Z,42.63
2023-05-09T12:16:32.049Z,42.62
2023-05-09T12:17:31.985Z,42.66
2023-05-09T12:18:31.918Z,42.62
2023-05-09T12:19:31.847Z,42.62
2023-05-09T12:20:31.794Z,42.57
2023-05-09T12:21:31.751Z,42.58
2023-05-09T12:22:31.705Z,42.56
2023-05-09T12:23:31.663Z,42.57
2023-05-09T12:24:31.606Z,42.60
2023-05-09T12:25:31.573Z,42.49
2023-05-09T12:26:31.494Z,42.49
2023-05-09T12:27:31.556Z,42.53
2023-05-09T12:28:31.410Z,42.47
2023-05-09T12:29:31.385Z,42.53
2023-05-09T12:30:31.320Z,42.50
2023-05-09T12:31:31.344Z,42.50
2023-05-09T12:32:31.242Z,42.52
2023-05-09T12:33:31.231Z,42.50
2023-05-09T12:34:31.213Z,42.51
2023-05-09T12:35:31.197Z,42.47
2023-05-09T12:36:31.160Z,42.46
2023-05-09T12:37:31.142Z,42.44
2023-05-09T12:38:31.103Z,42.43
2023-05-09T12:39:31.081Z,42.44
2023-05-09T12:40:31.059Z,42.45
2023-05-09T12:41:39.070Z,42.43
2023-05-09T12:42:31.982Z,42.44
2023-05-09T12:43:31.026Z,42.38
2023-05-09T12:44:30.896Z,42.43
2023-05-09T12:45:30.834Z,42.42
2023-05-09T12:46:30.800Z,42.41
2023-05-09T12:47:30.758Z,42.39
2023-05-09T12:48:30.683Z,42.38
2023-05-09T12:49:30.645Z,42.39
2023-05-09T12:50:30.609Z,42.40
2023-05-09T12:51:30.543Z,42.38
2023-05-09T12:52:30.496Z,42.31